Kezdőlap
METAR-TAF:

METAR-TAF

Repülőterek :

Niamey, Niger

Diori Hamani nemzetközi repülőtér

földrajzi szélesség: 13-29N, földrajzi hosszúság: 002-10E, magasság: 223 m

Jelenlegi meteorológiai megfigyelések

A jelentés 57 perccel ezelõtt készült, 03:00 UTC
Észak-északkeleti szél 6 kt
Hőmérséklet 17°C
Páratartalom 19%
Légköri nyomás 1014 hPa
Látótávolság: 7000 m

METAR: DRRN 240300Z 03006KT 7000 NSC 17/M07 Q1014 NOSIG

Idő: 04:57 (03:57 UTC)

Előrejelzés

A jelentés 4 órával és 57 perccel ezelõtt készült, 23:00 UTC
Az előrejelzés 24-én 00 óra UTC és 25-én 06 óra UTC között érvényes
Kelet-északkeleti szél 8 kt
Látótávolság: 6000 m
24-én 06 óra UTC és 24-én 08 óra UTC között ideiglenes
Látótávolság: 4000 m
kiterjedt por
24-én 09 óra UTC és 24-én 12 óra UTC között ideiglenes
Keleti szél 18 kt
Látótávolság: 2800 m
porvihar

TAF: DRRN 232300Z 2400/2506 06008KT 6000 NSC TEMPO 2406/2408 4000 DU TEMPO 2409/2412 08018KT 2800 BLDU

Meteorológiai megfigyelések és előrejelzések több, mint 4000 repülőtéren (METAR és TAF jelentéseket).

A térképen piros és sárga pontok jelzik az elérhető meteorológiai állomásokat.

Mozgassa az egeret a pont fölött, hogy megjelenjen az állomás neve.

Azután kattintson az időjárási megfigyelések és előrejelzések megtekintéséhez.

A térkép megváltoztatása: kattintson a fekete keresztel jelölt zöld gombra ráközelítéshez, a vonallal jelölt zöld gombra távolításhoz, vagy a zöld nyilakra a szomszédos térképek eléréséhez.


METAR-TAF: